Pagrindinis puslapis
METAR-TAF:

METAR-TAF

Oro uostai :

Mauricijus, Mauricijus

platuma: 20-26S, ilguma: 057-40E, Aukštis: 55 m

Dabartinis oras

Ataskaita buvo paskelbta 1 valandą ir 11 minutes, ne 21:00 UTC
Vėjas 4 kt iš Šiaurės/Šiaurės Vakarų
Temperatūra 23°C
Drėgmė 89%
Slėgis 1011 hPa
Matomumas 10 km arba daugiau
Mažai debesys ne aukštis 1800 ft

METAR: FIMP 262100Z 33004KT 9999 FEW018 23/21 Q1011

Laikas: 02:11 (22:11 UTC)

Prognozė

Ataskaita buvo paskelbta 5 valandos ir 11 minutes, ne 17:00 UTC
Prognozė galioja nuo 26 metu 18 UTC su 28 metu 00 UTC
Vėjas 3 kt nuo kintamojo kryptimis
Matomumas 10 km arba daugiau
Išsisklaidę debesys ne aukštis 1800 ft
Tapsmas
nuo 27 metu 04 UTC su 27 metu 06 UTC
Vėjas 6 kt iš Rytų
Tikimybė 30% :
Laikinai
nuo 27 metu 12 UTC su 27 metu 18 UTC
Matomumas: 7000 m
Su prošvaistėmis ne aukštis 1500 ft
lietus

TAF: FIMP 261700Z 2618/2800 VRB03KT 9999 SCT018 BECMG 2704/2706 09006KT PROB30 TEMPO 2712/2718 7000 -SHRA BKN015

Orai ataskaitas ir orų prognozės (METAR, TAF).

turimą stotys yra geltonos ir raudonos taškus žemėlapyje.

Perkelti pele per norėdami pamatyti stoties vardą.

Tada spustelėkite, norėdami matyti oro stebėjimo ir prognozės.

Norėdami pakeisti žemėlapį: spustelėkite ant žalios mygtukų su juodo kryžiaus žemyn,; žalią mygtuką su brūkšneliu, jei norite nutolinti; arba žalių rodyklių gretimoms žemėlapius.


METAR-TAF: